< < Back
Terminal Aerodrome Forecast


Current Version              Previous Versions:   1  2  3  4  5  6  7  8  9  

Terminal Aerodrome Forecast

857
FTUS44 KMOB 230200 AAA
TAFMOB
TAF AMD
KMOB 230237Z 2303/2324 08012KT 5SM -RA BR BKN009 OVC016
     FM230900 10012G17KT 5SM -SHRA BR OVC007
     FM231200 13014G24KT 4SM TSRA OVC004CB
     FM231800 20015G25KT P6SM VCSH BKN025=

Latest METAR

331
SAUS80 KWBC 231100 CCA
MTRMOB
METAR KMOB 231056Z AUTO 12009KT 2 1/2SM BR OVC002 17/17 A2978 RMK AO2
RAB10E47 SLP083 P0001 T01720172


USA.gov is the U.S. government's official web portal to all federal, state and local government web resources and services.